sensor_id;sensor_type;location;lat;lon;timestamp;temperature;humidity
55313;DHT22;46892;45.668;11.756;2022-07-22T00:01:50;24.50;65.10
55313;DHT22;46892;45.668;11.756;2022-07-22T00:04:15;24.40;65.20
55313;DHT22;46892;45.668;11.756;2022-07-22T00:06:42;24.40;63.10
55313;DHT22;46892;45.668;11.756;2022-07-22T00:09:08;24.30;61.40
55313;DHT22;46892;45.668;11.756;2022-07-22T00:11:35;24.30;60.90
55313;DHT22;46892;45.668;11.756;2022-07-22T00:14:01;24.50;59.70
55313;DHT22;46892;45.668;11.756;2022-07-22T00:16:26;24.60;59.50
55313;DHT22;46892;45.668;11.756;2022-07-22T00:18:52;24.70;60.50
55313;DHT22;46892;45.668;11.756;2022-07-22T00:21:18;24.80;60.60
55313;DHT22;46892;45.668;11.756;2022-07-22T00:23:44;24.80;59.90
55313;DHT22;46892;45.668;11.756;2022-07-22T00:26:10;24.90;60.00
55313;DHT22;46892;45.668;11.756;2022-07-22T00:28:35;25.00;62.30
55313;DHT22;46892;45.668;11.756;2022-07-22T00:31:01;24.70;62.30
55313;DHT22;46892;45.668;11.756;2022-07-22T00:33:27;24.50;62.60
55313;DHT22;46892;45.668;11.756;2022-07-22T00:35:53;24.30;61.60
55313;DHT22;46892;45.668;11.756;2022-07-22T00:38:18;24.40;65.30
55313;DHT22;46892;45.668;11.756;2022-07-22T00:40:44;24.50;64.90
55313;DHT22;46892;45.668;11.756;2022-07-22T00:43:10;24.50;62.60
55313;DHT22;46892;45.668;11.756;2022-07-22T00:45:35;24.50;63.30
55313;DHT22;46892;45.668;11.756;2022-07-22T00:48:02;24.40;63.90
55313;DHT22;46892;45.668;11.756;2022-07-22T00:50:27;24.30;64.70
55313;DHT22;46892;45.668;11.756;2022-07-22T00:52:53;24.20;64.70
55313;DHT22;46892;45.668;11.756;2022-07-22T00:55:19;24.30;65.60
55313;DHT22;46892;45.668;11.756;2022-07-22T00:57:44;24.30;65.90
55313;DHT22;46892;45.668;11.756;2022-07-22T01:00:15;24.30;66.30
55313;DHT22;46892;45.668;11.756;2022-07-22T01:02:42;24.40;64.00
55313;DHT22;46892;45.668;11.756;2022-07-22T01:05:07;24.30;64.50
55313;DHT22;46892;45.668;11.756;2022-07-22T01:07:33;24.20;64.90
55313;DHT22;46892;45.668;11.756;2022-07-22T01:09:59;24.20;64.80
55313;DHT22;46892;45.668;11.756;2022-07-22T01:12:25;24.10;65.30
55313;DHT22;46892;45.668;11.756;2022-07-22T01:14:50;24.00;65.80
55313;DHT22;46892;45.668;11.756;2022-07-22T01:17:16;24.00;65.90
55313;DHT22;46892;45.668;11.756;2022-07-22T01:19:42;24.00;64.60
55313;DHT22;46892;45.668;11.756;2022-07-22T01:22:08;24.00;65.40
55313;DHT22;46892;45.668;11.756;2022-07-22T01:24:34;24.00;66.30
55313;DHT22;46892;45.668;11.756;2022-07-22T01:27:00;24.00;66.60
55313;DHT22;46892;45.668;11.756;2022-07-22T01:29:26;23.90;65.70
55313;DHT22;46892;45.668;11.756;2022-07-22T01:31:52;24.00;66.90
55313;DHT22;46892;45.668;11.756;2022-07-22T01:34:18;24.00;67.10
55313;DHT22;46892;45.668;11.756;2022-07-22T01:36:43;24.00;67.40
55313;DHT22;46892;45.668;11.756;2022-07-22T01:39:09;24.00;67.50
55313;DHT22;46892;45.668;11.756;2022-07-22T01:41:35;24.00;66.30
55313;DHT22;46892;45.668;11.756;2022-07-22T01:44:01;24.00;67.00
55313;DHT22;46892;45.668;11.756;2022-07-22T01:46:27;24.20;66.70
55313;DHT22;46892;45.668;11.756;2022-07-22T01:48:52;24.20;66.10
55313;DHT22;46892;45.668;11.756;2022-07-22T01:51:19;24.20;66.50
55313;DHT22;46892;45.668;11.756;2022-07-22T01:53:44;24.10;65.60
55313;DHT22;46892;45.668;11.756;2022-07-22T01:56:10;24.00;66.40
55313;DHT22;46892;45.668;11.756;2022-07-22T01:58:36;23.80;66.90
55313;DHT22;46892;45.668;11.756;2022-07-22T02:01:02;23.70;67.00
55313;DHT22;46892;45.668;11.756;2022-07-22T02:03:28;23.60;66.60
55313;DHT22;46892;45.668;11.756;2022-07-22T02:05:53;23.60;67.80
55313;DHT22;46892;45.668;11.756;2022-07-22T02:08:19;23.70;67.50
55313;DHT22;46892;45.668;11.756;2022-07-22T02:10:45;23.70;65.90
55313;DHT22;46892;45.668;11.756;2022-07-22T02:13:11;23.70;67.10
55313;DHT22;46892;45.668;11.756;2022-07-22T02:15:36;23.70;66.50
55313;DHT22;46892;45.668;11.756;2022-07-22T02:18:14;23.70;65.90
55313;DHT22;46892;45.668;11.756;2022-07-22T02:20:40;23.60;67.00
55313;DHT22;46892;45.668;11.756;2022-07-22T02:23:06;23.60;67.30
55313;DHT22;46892;45.668;11.756;2022-07-22T02:25:33;23.50;67.80
55313;DHT22;46892;45.668;11.756;2022-07-22T02:27:59;23.50;66.70
55313;DHT22;46892;45.668;11.756;2022-07-22T02:30:24;23.50;68.00
55313;DHT22;46892;45.668;11.756;2022-07-22T02:32:50;23.60;67.10
55313;DHT22;46892;45.668;11.756;2022-07-22T02:35:15;23.60;66.10
55313;DHT22;46892;45.668;11.756;2022-07-22T02:37:41;23.50;67.00
55313;DHT22;46892;45.668;11.756;2022-07-22T02:40:07;23.60;66.60
55313;DHT22;46892;45.668;11.756;2022-07-22T02:42:33;23.50;66.40
55313;DHT22;46892;45.668;11.756;2022-07-22T02:44:59;23.50;67.70
55313;DHT22;46892;45.668;11.756;2022-07-22T02:47:25;23.50;67.20
55313;DHT22;46892;45.668;11.756;2022-07-22T02:49:51;23.50;68.50
55313;DHT22;46892;45.668;11.756;2022-07-22T02:52:17;23.50;67.80
55313;DHT22;46892;45.668;11.756;2022-07-22T02:54:43;23.50;66.90
55313;DHT22;46892;45.668;11.756;2022-07-22T02:57:08;23.50;67.80
55313;DHT22;46892;45.668;11.756;2022-07-22T02:59:34;23.50;67.20
55313;DHT22;46892;45.668;11.756;2022-07-22T03:02:00;23.50;66.70
55313;DHT22;46892;45.668;11.756;2022-07-22T03:04:26;23.50;65.80
55313;DHT22;46892;45.668;11.756;2022-07-22T03:06:51;23.50;67.70
55313;DHT22;46892;45.668;11.756;2022-07-22T03:09:17;23.40;68.00
55313;DHT22;46892;45.668;11.756;2022-07-22T03:11:43;23.40;67.70
55313;DHT22;46892;45.668;11.756;2022-07-22T03:14:08;23.10;68.40
55313;DHT22;46892;45.668;11.756;2022-07-22T03:16:34;23.00;68.90
55313;DHT22;46892;45.668;11.756;2022-07-22T03:19:00;23.00;69.80
55313;DHT22;46892;45.668;11.756;2022-07-22T03:21:25;23.10;69.70
55313;DHT22;46892;45.668;11.756;2022-07-22T03:23:51;23.10;69.60
55313;DHT22;46892;45.668;11.756;2022-07-22T03:26:20;23.10;69.80
55313;DHT22;46892;45.668;11.756;2022-07-22T03:28:46;23.10;69.60
55313;DHT22;46892;45.668;11.756;2022-07-22T03:31:12;23.20;69.70
55313;DHT22;46892;45.668;11.756;2022-07-22T03:33:38;23.20;69.50
55313;DHT22;46892;45.668;11.756;2022-07-22T03:36:04;23.20;68.90
55313;DHT22;46892;45.668;11.756;2022-07-22T03:38:31;23.20;68.90
55313;DHT22;46892;45.668;11.756;2022-07-22T03:40:56;23.10;68.80
55313;DHT22;46892;45.668;11.756;2022-07-22T03:43:22;23.00;68.90
55313;DHT22;46892;45.668;11.756;2022-07-22T03:45:48;22.90;68.30
55313;DHT22;46892;45.668;11.756;2022-07-22T03:48:14;22.80;69.70
55313;DHT22;46892;45.668;11.756;2022-07-22T03:50:39;22.80;70.10
55313;DHT22;46892;45.668;11.756;2022-07-22T03:53:05;22.80;70.00
55313;DHT22;46892;45.668;11.756;2022-07-22T03:55:31;22.70;69.40
55313;DHT22;46892;45.668;11.756;2022-07-22T03:57:56;22.70;69.50
55313;DHT22;46892;45.668;11.756;2022-07-22T04:00:22;22.70;69.40
55313;DHT22;46892;45.668;11.756;2022-07-22T04:02:47;22.60;69.60
55313;DHT22;46892;45.668;11.756;2022-07-22T04:05:13;22.60;69.60
55313;DHT22;46892;45.668;11.756;2022-07-22T04:07:39;22.50;69.40
55313;DHT22;46892;45.668;11.756;2022-07-22T04:10:05;22.50;69.30
55313;DHT22;46892;45.668;11.756;2022-07-22T04:12:35;22.50;69.50
55313;DHT22;46892;45.668;11.756;2022-07-22T04:15:03;22.50;69.60
55313;DHT22;46892;45.668;11.756;2022-07-22T04:17:29;22.40;70.00
55313;DHT22;46892;45.668;11.756;2022-07-22T04:19:55;22.40;69.80
55313;DHT22;46892;45.668;11.756;2022-07-22T04:22:21;22.50;69.60
55313;DHT22;46892;45.668;11.756;2022-07-22T04:24:47;22.50;69.50
55313;DHT22;46892;45.668;11.756;2022-07-22T04:27:12;22.50;69.50
55313;DHT22;46892;45.668;11.756;2022-07-22T04:29:38;22.60;68.90
55313;DHT22;46892;45.668;11.756;2022-07-22T04:32:04;22.80;68.70
55313;DHT22;46892;45.668;11.756;2022-07-22T04:34:29;22.80;68.30
55313;DHT22;46892;45.668;11.756;2022-07-22T04:36:55;23.00;68.40
55313;DHT22;46892;45.668;11.756;2022-07-22T04:39:21;23.00;69.00
55313;DHT22;46892;45.668;11.756;2022-07-22T04:41:46;23.10;69.20
55313;DHT22;46892;45.668;11.756;2022-07-22T04:44:12;23.20;69.60
55313;DHT22;46892;45.668;11.756;2022-07-22T04:46:38;23.40;69.50
55313;DHT22;46892;45.668;11.756;2022-07-22T04:49:03;23.50;69.30
55313;DHT22;46892;45.668;11.756;2022-07-22T04:51:29;23.70;67.30
55313;DHT22;46892;45.668;11.756;2022-07-22T04:53:55;23.80;66.40
55313;DHT22;46892;45.668;11.756;2022-07-22T04:56:21;23.90;65.90
55313;DHT22;46892;45.668;11.756;2022-07-22T04:58:46;24.00;65.60
55313;DHT22;46892;45.668;11.756;2022-07-22T05:01:12;24.20;65.30
55313;DHT22;46892;45.668;11.756;2022-07-22T05:03:39;24.20;66.90
55313;DHT22;46892;45.668;11.756;2022-07-22T05:06:05;24.30;67.00
55313;DHT22;46892;45.668;11.756;2022-07-22T05:08:31;24.60;65.90
55313;DHT22;46892;45.668;11.756;2022-07-22T05:10:57;24.80;64.20
55313;DHT22;46892;45.668;11.756;2022-07-22T05:13:22;25.00;63.90
55313;DHT22;46892;45.668;11.756;2022-07-22T05:15:48;25.10;63.50
55313;DHT22;46892;45.668;11.756;2022-07-22T05:18:15;25.10;63.60
55313;DHT22;46892;45.668;11.756;2022-07-22T05:20:41;25.20;62.90
55313;DHT22;46892;45.668;11.756;2022-07-22T05:23:07;25.30;62.40
55313;DHT22;46892;45.668;11.756;2022-07-22T05:25:33;25.40;61.90
55313;DHT22;46892;45.668;11.756;2022-07-22T05:27:58;25.60;61.70
55313;DHT22;46892;45.668;11.756;2022-07-22T05:30:24;25.70;62.30
55313;DHT22;46892;45.668;11.756;2022-07-22T05:32:50;25.70;61.20
55313;DHT22;46892;45.668;11.756;2022-07-22T05:35:17;25.80;60.20
55313;DHT22;46892;45.668;11.756;2022-07-22T05:37:42;25.90;60.20
55313;DHT22;46892;45.668;11.756;2022-07-22T05:40:08;26.00;60.40
55313;DHT22;46892;45.668;11.756;2022-07-22T05:42:34;26.00;62.40
55313;DHT22;46892;45.668;11.756;2022-07-22T05:45:00;26.30;60.90
55313;DHT22;46892;45.668;11.756;2022-07-22T05:47:25;26.50;59.60
55313;DHT22;46892;45.668;11.756;2022-07-22T05:49:51;26.80;61.70
55313;DHT22;46892;45.668;11.756;2022-07-22T05:52:17;27.20;61.10
55313;DHT22;46892;45.668;11.756;2022-07-22T05:54:42;27.70;60.10
55313;DHT22;46892;45.668;11.756;2022-07-22T05:57:08;28.00;58.80
55313;DHT22;46892;45.668;11.756;2022-07-22T05:59:35;28.20;57.40
55313;DHT22;46892;45.668;11.756;2022-07-22T06:02:01;28.60;56.20
55313;DHT22;46892;45.668;11.756;2022-07-22T06:04:27;28.90;56.00
55313;DHT22;46892;45.668;11.756;2022-07-22T06:06:53;29.00;55.50
55313;DHT22;46892;45.668;11.756;2022-07-22T06:09:18;29.00;52.70
55313;DHT22;46892;45.668;11.756;2022-07-22T06:11:44;29.00;52.50
55313;DHT22;46892;45.668;11.756;2022-07-22T06:14:10;28.90;55.20
55313;DHT22;46892;45.668;11.756;2022-07-22T06:16:36;28.80;54.30
55313;DHT22;46892;45.668;11.756;2022-07-22T06:19:02;28.80;56.00
55313;DHT22;46892;45.668;11.756;2022-07-22T06:21:28;29.00;57.00
55313;DHT22;46892;45.668;11.756;2022-07-22T06:23:53;29.20;56.20
55313;DHT22;46892;45.668;11.756;2022-07-22T06:26:19;29.60;55.60
55313;DHT22;46892;45.668;11.756;2022-07-22T06:28:45;29.70;54.20
55313;DHT22;46892;45.668;11.756;2022-07-22T06:31:11;29.90;54.50
55313;DHT22;46892;45.668;11.756;2022-07-22T06:33:36;30.20;53.90
55313;DHT22;46892;45.668;11.756;2022-07-22T06:36:03;30.40;53.20
55313;DHT22;46892;45.668;11.756;2022-07-22T06:38:29;30.60;52.50
55313;DHT22;46892;45.668;11.756;2022-07-22T06:40:55;30.70;51.30
55313;DHT22;46892;45.668;11.756;2022-07-22T06:43:21;30.70;52.90
55313;DHT22;46892;45.668;11.756;2022-07-22T06:45:47;30.70;53.30
55313;DHT22;46892;45.668;11.756;2022-07-22T06:48:13;30.90;53.20
55313;DHT22;46892;45.668;11.756;2022-07-22T06:50:38;31.00;52.20
55313;DHT22;46892;45.668;11.756;2022-07-22T06:53:04;31.20;51.00
55313;DHT22;46892;45.668;11.756;2022-07-22T06:55:30;31.20;49.70
55313;DHT22;46892;45.668;11.756;2022-07-22T06:57:56;31.20;47.90
55313;DHT22;46892;45.668;11.756;2022-07-22T07:00:21;31.30;52.80
55313;DHT22;46892;45.668;11.756;2022-07-22T07:02:47;31.40;52.20
55313;DHT22;46892;45.668;11.756;2022-07-22T07:05:13;31.40;48.70
55313;DHT22;46892;45.668;11.756;2022-07-22T07:07:39;31.30;48.40
55313;DHT22;46892;45.668;11.756;2022-07-22T07:10:05;31.20;50.90
55313;DHT22;46892;45.668;11.756;2022-07-22T07:12:31;31.30;52.10
55313;DHT22;46892;45.668;11.756;2022-07-22T07:14:56;31.60;50.90
55313;DHT22;46892;45.668;11.756;2022-07-22T07:17:22;31.70;51.20
55313;DHT22;46892;45.668;11.756;2022-07-22T07:19:49;31.90;50.10
55313;DHT22;46892;45.668;11.756;2022-07-22T07:22:15;32.00;51.30
55313;DHT22;46892;45.668;11.756;2022-07-22T07:24:41;32.30;52.10
55313;DHT22;46892;45.668;11.756;2022-07-22T07:27:07;32.60;46.10
55313;DHT22;46892;45.668;11.756;2022-07-22T07:29:33;32.70;49.50
55313;DHT22;46892;45.668;11.756;2022-07-22T07:31:59;32.80;47.90
55313;DHT22;46892;45.668;11.756;2022-07-22T07:34:24;32.90;44.20
55313;DHT22;46892;45.668;11.756;2022-07-22T07:36:50;32.80;47.50
55313;DHT22;46892;45.668;11.756;2022-07-22T07:39:16;32.60;47.90
55313;DHT22;46892;45.668;11.756;2022-07-22T07:41:41;32.70;46.70
55313;DHT22;46892;45.668;11.756;2022-07-22T07:44:07;32.70;49.20
55313;DHT22;46892;45.668;11.756;2022-07-22T07:46:33;32.80;44.70
55313;DHT22;46892;45.668;11.756;2022-07-22T07:48:58;32.70;45.10
55313;DHT22;46892;45.668;11.756;2022-07-22T07:51:24;32.50;46.60
55313;DHT22;46892;45.668;11.756;2022-07-22T07:53:50;32.50;49.10
55313;DHT22;46892;45.668;11.756;2022-07-22T07:56:16;32.50;43.70
55313;DHT22;46892;45.668;11.756;2022-07-22T07:58:41;32.70;46.80
55313;DHT22;46892;45.668;11.756;2022-07-22T08:01:07;32.70;43.00
55313;DHT22;46892;45.668;11.756;2022-07-22T08:03:33;32.60;39.20
55313;DHT22;46892;45.668;11.756;2022-07-22T08:05:58;32.60;42.50
55313;DHT22;46892;45.668;11.756;2022-07-22T08:08:25;32.50;43.70
55313;DHT22;46892;45.668;11.756;2022-07-22T08:10:51;32.40;47.10
55313;DHT22;46892;45.668;11.756;2022-07-22T08:13:17;32.50;43.60
55313;DHT22;46892;45.668;11.756;2022-07-22T08:15:43;32.70;45.80
55313;DHT22;46892;45.668;11.756;2022-07-22T08:18:09;32.90;44.30
55313;DHT22;46892;45.668;11.756;2022-07-22T08:20:34;33.10;46.10
55313;DHT22;46892;45.668;11.756;2022-07-22T08:23:00;33.20;40.30
55313;DHT22;46892;45.668;11.756;2022-07-22T08:25:26;33.10;40.80
55313;DHT22;46892;45.668;11.756;2022-07-22T08:27:51;33.00;41.20
55313;DHT22;46892;45.668;11.756;2022-07-22T08:30:18;33.00;42.50
55313;DHT22;46892;45.668;11.756;2022-07-22T08:32:44;33.10;42.60
55313;DHT22;46892;45.668;11.756;2022-07-22T08:35:10;33.10;41.90
55313;DHT22;46892;45.668;11.756;2022-07-22T08:37:36;33.20;43.10
55313;DHT22;46892;45.668;11.756;2022-07-22T08:40:03;33.30;41.80
55313;DHT22;46892;45.668;11.756;2022-07-22T08:42:29;33.50;43.00
55313;DHT22;46892;45.668;11.756;2022-07-22T08:44:55;33.60;40.50
55313;DHT22;46892;45.668;11.756;2022-07-22T08:47:24;33.70;39.90
55313;DHT22;46892;45.668;11.756;2022-07-22T08:49:50;33.70;36.60
55313;DHT22;46892;45.668;11.756;2022-07-22T08:52:15;33.70;38.40
55313;DHT22;46892;45.668;11.756;2022-07-22T08:54:42;33.80;42.80
55313;DHT22;46892;45.668;11.756;2022-07-22T08:57:08;33.80;38.90
55313;DHT22;46892;45.668;11.756;2022-07-22T08:59:47;33.90;40.10
55313;DHT22;46892;45.668;11.756;2022-07-22T09:02:13;33.90;37.90
55313;DHT22;46892;45.668;11.756;2022-07-22T09:04:51;34.00;36.90
55313;DHT22;46892;45.668;11.756;2022-07-22T09:09:50;34.10;39.10
55313;DHT22;46892;45.668;11.756;2022-07-22T09:12:15;34.20;41.90
55313;DHT22;46892;45.668;11.756;2022-07-22T09:14:51;34.20;41.30
55313;DHT22;46892;45.668;11.756;2022-07-22T09:17:35;34.20;43.80
55313;DHT22;46892;45.668;11.756;2022-07-22T09:20:03;34.30;39.40
55313;DHT22;46892;45.668;11.756;2022-07-22T09:22:42;34.30;37.40
55313;DHT22;46892;45.668;11.756;2022-07-22T09:25:36;34.30;38.10
55313;DHT22;46892;45.668;11.756;2022-07-22T09:30:32;34.40;40.20
55313;DHT22;46892;45.668;11.756;2022-07-22T09:32:58;34.40;43.80
55313;DHT22;46892;45.668;11.756;2022-07-22T09:35:24;34.40;38.50
55313;DHT22;46892;45.668;11.756;2022-07-22T09:38:01;34.50;40.50
55313;DHT22;46892;45.668;11.756;2022-07-22T09:40:31;34.50;40.20
55313;DHT22;46892;45.668;11.756;2022-07-22T09:42:59;34.40;36.30
55313;DHT22;46892;45.668;11.756;2022-07-22T09:45:27;34.40;38.90
55313;DHT22;46892;45.668;11.756;2022-07-22T09:47:54;34.30;38.40
55313;DHT22;46892;45.668;11.756;2022-07-22T09:50:26;34.30;39.60
55313;DHT22;46892;45.668;11.756;2022-07-22T09:52:54;34.30;40.10
55313;DHT22;46892;45.668;11.756;2022-07-22T09:55:22;34.30;40.50
55313;DHT22;46892;45.668;11.756;2022-07-22T09:57:49;34.30;40.00
55313;DHT22;46892;45.668;11.756;2022-07-22T10:00:21;34.40;38.00
55313;DHT22;46892;45.668;11.756;2022-07-22T10:02:53;34.50;36.00
55313;DHT22;46892;45.668;11.756;2022-07-22T10:05:28;34.50;34.80
55313;DHT22;46892;45.668;11.756;2022-07-22T10:07:54;34.60;35.90
55313;DHT22;46892;45.668;11.756;2022-07-22T10:10:24;34.50;38.20
55313;DHT22;46892;45.668;11.756;2022-07-22T10:12:53;34.40;41.20
55313;DHT22;46892;45.668;11.756;2022-07-22T10:15:20;34.40;36.40
55313;DHT22;46892;45.668;11.756;2022-07-22T10:17:55;34.40;35.30
55313;DHT22;46892;45.668;11.756;2022-07-22T10:20:26;34.50;35.50
55313;DHT22;46892;45.668;11.756;2022-07-22T10:22:57;34.50;34.70
55313;DHT22;46892;45.668;11.756;2022-07-22T10:25:28;34.50;34.40
55313;DHT22;46892;45.668;11.756;2022-07-22T10:28:00;34.40;37.80
55313;DHT22;46892;45.668;11.756;2022-07-22T10:30:28;34.40;36.90
55313;DHT22;46892;45.668;11.756;2022-07-22T10:33:08;34.40;36.60
55313;DHT22;46892;45.668;11.756;2022-07-22T10:35:53;34.50;39.40
55313;DHT22;46892;45.668;11.756;2022-07-22T10:38:18;34.50;37.50
55313;DHT22;46892;45.668;11.756;2022-07-22T10:41:02;34.50;35.70
55313;DHT22;46892;45.668;11.756;2022-07-22T10:43:30;34.60;36.70
55313;DHT22;46892;45.668;11.756;2022-07-22T10:46:02;34.60;36.30
55313;DHT22;46892;45.668;11.756;2022-07-22T10:51:09;34.60;30.30
55313;DHT22;46892;45.668;11.756;2022-07-22T11:01:35;34.60;32.40
55313;DHT22;46892;45.668;11.756;2022-07-22T11:04:16;34.70;33.60
55313;DHT22;46892;45.668;11.756;2022-07-22T11:06:43;34.70;31.40
55313;DHT22;46892;45.668;11.756;2022-07-22T11:09:11;34.70;33.00
55313;DHT22;46892;45.668;11.756;2022-07-22T11:11:44;34.80;33.00
55313;DHT22;46892;45.668;11.756;2022-07-22T11:14:29;34.80;35.10
55313;DHT22;46892;45.668;11.756;2022-07-22T11:17:13;34.80;30.60
55313;DHT22;46892;45.668;11.756;2022-07-22T11:19:40;34.80;34.60
55313;DHT22;46892;45.668;11.756;2022-07-22T11:22:07;34.80;32.80
55313;DHT22;46892;45.668;11.756;2022-07-22T11:24:33;34.90;31.40
55313;DHT22;46892;45.668;11.756;2022-07-22T11:26:59;34.90;31.30
55313;DHT22;46892;45.668;11.756;2022-07-22T11:29:26;34.90;31.90
55313;DHT22;46892;45.668;11.756;2022-07-22T11:31:54;34.90;32.20
55313;DHT22;46892;45.668;11.756;2022-07-22T11:34:20;34.90;31.20
55313;DHT22;46892;45.668;11.756;2022-07-22T11:36:46;35.00;32.90
55313;DHT22;46892;45.668;11.756;2022-07-22T11:39:14;35.10;32.00
55313;DHT22;46892;45.668;11.756;2022-07-22T11:41:41;35.20;31.70
55313;DHT22;46892;45.668;11.756;2022-07-22T11:44:07;35.10;29.60
55313;DHT22;46892;45.668;11.756;2022-07-22T11:46:41;35.00;30.30
55313;DHT22;46892;45.668;11.756;2022-07-22T11:49:08;35.10;34.40
55313;DHT22;46892;45.668;11.756;2022-07-22T11:51:36;35.20;33.70
55313;DHT22;46892;45.668;11.756;2022-07-22T11:54:03;35.30;34.10
55313;DHT22;46892;45.668;11.756;2022-07-22T11:56:29;35.30;30.90
55313;DHT22;46892;45.668;11.756;2022-07-22T11:58:55;35.20;29.20
55313;DHT22;46892;45.668;11.756;2022-07-22T12:01:27;35.20;31.20
55313;DHT22;46892;45.668;11.756;2022-07-22T12:04:02;35.20;31.90
55313;DHT22;46892;45.668;11.756;2022-07-22T12:06:29;35.30;33.30
55313;DHT22;46892;45.668;11.756;2022-07-22T12:09:02;35.30;31.50
55313;DHT22;46892;45.668;11.756;2022-07-22T12:11:28;35.30;31.00
55313;DHT22;46892;45.668;11.756;2022-07-22T12:13:54;35.40;30.80
55313;DHT22;46892;45.668;11.756;2022-07-22T12:16:28;35.40;30.60
55313;DHT22;46892;45.668;11.756;2022-07-22T12:18:58;35.50;29.70
55313;DHT22;46892;45.668;11.756;2022-07-22T12:21:26;35.60;32.80
55313;DHT22;46892;45.668;11.756;2022-07-22T12:23:57;35.60;30.80
55313;DHT22;46892;45.668;11.756;2022-07-22T12:26:51;35.50;28.60
55313;DHT22;46892;45.668;11.756;2022-07-22T12:31:51;35.50;30.20
55313;DHT22;46892;45.668;11.756;2022-07-22T12:34:47;35.50;31.40
55313;DHT22;46892;45.668;11.756;2022-07-22T12:37:34;35.60;29.70
55313;DHT22;46892;45.668;11.756;2022-07-22T12:40:08;35.70;32.90
55313;DHT22;46892;45.668;11.756;2022-07-22T12:45:07;35.70;33.40
55313;DHT22;46892;45.668;11.756;2022-07-22T12:47:48;35.70;33.30
55313;DHT22;46892;45.668;11.756;2022-07-22T12:50:38;35.70;31.70
55313;DHT22;46892;45.668;11.756;2022-07-22T12:53:06;35.70;34.30
55313;DHT22;46892;45.668;11.756;2022-07-22T12:55:47;35.70;34.00
55313;DHT22;46892;45.668;11.756;2022-07-22T12:58:14;35.70;32.10
55313;DHT22;46892;45.668;11.756;2022-07-22T13:00:59;35.80;32.20
55313;DHT22;46892;45.668;11.756;2022-07-22T13:03:26;35.90;31.90
55313;DHT22;46892;45.668;11.756;2022-07-22T13:05:55;35.90;29.80
55313;DHT22;46892;45.668;11.756;2022-07-22T13:08:21;36.00;30.60
55313;DHT22;46892;45.668;11.756;2022-07-22T13:10:51;35.90;29.40
55313;DHT22;46892;45.668;11.756;2022-07-22T13:13:18;35.80;28.80
55313;DHT22;46892;45.668;11.756;2022-07-22T13:15:44;35.80;30.70
55313;DHT22;46892;45.668;11.756;2022-07-22T13:18:09;35.70;29.70
55313;DHT22;46892;45.668;11.756;2022-07-22T13:20:35;35.80;29.40
55313;DHT22;46892;45.668;11.756;2022-07-22T13:23:01;35.70;30.70
55313;DHT22;46892;45.668;11.756;2022-07-22T13:25:26;35.80;29.10
55313;DHT22;46892;45.668;11.756;2022-07-22T13:27:53;35.80;28.90
55313;DHT22;46892;45.668;11.756;2022-07-22T13:30:19;35.80;30.80
55313;DHT22;46892;45.668;11.756;2022-07-22T13:32:45;36.00;35.50
55313;DHT22;46892;45.668;11.756;2022-07-22T13:35:11;36.00;35.10
55313;DHT22;46892;45.668;11.756;2022-07-22T13:37:37;36.00;31.20
55313;DHT22;46892;45.668;11.756;2022-07-22T13:40:03;36.00;32.90
55313;DHT22;46892;45.668;11.756;2022-07-22T13:42:29;36.00;34.40
55313;DHT22;46892;45.668;11.756;2022-07-22T13:44:55;35.90;34.50
55313;DHT22;46892;45.668;11.756;2022-07-22T13:47:21;35.90;29.80
55313;DHT22;46892;45.668;11.756;2022-07-22T13:49:48;36.00;30.80
55313;DHT22;46892;45.668;11.756;2022-07-22T13:52:14;36.00;29.80
55313;DHT22;46892;45.668;11.756;2022-07-22T13:54:41;36.00;28.80
55313;DHT22;46892;45.668;11.756;2022-07-22T13:57:07;36.00;33.20
55313;DHT22;46892;45.668;11.756;2022-07-22T13:59:34;36.10;36.70
55313;DHT22;46892;45.668;11.756;2022-07-22T14:02:00;36.10;33.40
55313;DHT22;46892;45.668;11.756;2022-07-22T14:04:27;36.10;33.50
55313;DHT22;46892;45.668;11.756;2022-07-22T14:06:53;36.10;31.90
55313;DHT22;46892;45.668;11.756;2022-07-22T14:09:18;36.10;32.00
55313;DHT22;46892;45.668;11.756;2022-07-22T14:11:44;36.20;33.70
55313;DHT22;46892;45.668;11.756;2022-07-22T14:14:10;36.20;33.10
55313;DHT22;46892;45.668;11.756;2022-07-22T14:16:36;36.20;30.20
55313;DHT22;46892;45.668;11.756;2022-07-22T14:19:10;36.20;30.90
55313;DHT22;46892;45.668;11.756;2022-07-22T14:21:38;36.30;33.50
55313;DHT22;46892;45.668;11.756;2022-07-22T14:24:05;36.30;33.20
55313;DHT22;46892;45.668;11.756;2022-07-22T14:26:32;36.30;30.00
55313;DHT22;46892;45.668;11.756;2022-07-22T14:28:58;36.30;29.10
55313;DHT22;46892;45.668;11.756;2022-07-22T14:31:24;36.30;32.50
55313;DHT22;46892;45.668;11.756;2022-07-22T14:33:50;36.30;32.00
55313;DHT22;46892;45.668;11.756;2022-07-22T14:36:16;36.30;30.90
55313;DHT22;46892;45.668;11.756;2022-07-22T14:38:41;36.40;31.60
55313;DHT22;46892;45.668;11.756;2022-07-22T14:41:07;36.30;28.70
55313;DHT22;46892;45.668;11.756;2022-07-22T14:43:37;36.30;33.50
55313;DHT22;46892;45.668;11.756;2022-07-22T14:46:03;36.30;32.80
55313;DHT22;46892;45.668;11.756;2022-07-22T14:48:30;36.40;33.50
55313;DHT22;46892;45.668;11.756;2022-07-22T14:50:56;36.40;31.00
55313;DHT22;46892;45.668;11.756;2022-07-22T14:53:22;36.50;30.30
55313;DHT22;46892;45.668;11.756;2022-07-22T14:55:49;36.50;35.00
55313;DHT22;46892;45.668;11.756;2022-07-22T14:58:15;36.50;31.10
55313;DHT22;46892;45.668;11.756;2022-07-22T15:00:41;36.50;32.00
55313;DHT22;46892;45.668;11.756;2022-07-22T15:03:07;36.50;30.50
55313;DHT22;46892;45.668;11.756;2022-07-22T15:05:32;36.50;34.00
55313;DHT22;46892;45.668;11.756;2022-07-22T15:07:58;36.60;30.00
55313;DHT22;46892;45.668;11.756;2022-07-22T15:10:24;36.60;29.70
55313;DHT22;46892;45.668;11.756;2022-07-22T15:12:49;36.60;30.10
55313;DHT22;46892;45.668;11.756;2022-07-22T15:15:16;36.60;28.90
55313;DHT22;46892;45.668;11.756;2022-07-22T15:17:42;36.60;30.00
55313;DHT22;46892;45.668;11.756;2022-07-22T15:20:09;36.50;30.00
55313;DHT22;46892;45.668;11.756;2022-07-22T15:22:35;36.50;31.20
55313;DHT22;46892;45.668;11.756;2022-07-22T15:25:02;36.50;31.50
55313;DHT22;46892;45.668;11.756;2022-07-22T15:27:28;36.40;30.80
55313;DHT22;46892;45.668;11.756;2022-07-22T15:29:53;36.50;29.50
55313;DHT22;46892;45.668;11.756;2022-07-22T15:32:19;36.50;31.20
55313;DHT22;46892;45.668;11.756;2022-07-22T15:34:45;36.60;29.10
55313;DHT22;46892;45.668;11.756;2022-07-22T15:37:10;36.50;29.90